Time;durP1;ratioP1;P1;durP2;ratioP2;P2;SDS_P1;SDS_P2;PMS_P1;PMS_P2;Temp;Humidity;BMP_temperature;BMP_pressure;BME280_temperature;BME280_humidity;BME280_pressure;Samples;Min_cycle;Max_cycle;Signal;HPM_P1;HPM_P2
2023/03/16 00:00:19;;;;;;;10.63;6.72;;;;;;;4.22;85.26;100344.78;5024299;28;20030;-70
2023/03/16 00:02:44;;;;;;;12.70;5.78;;;;;;;4.08;83.88;100315.59;5022395;28;20026;-71
2023/03/16 00:05:11;;;;;;;12.40;6.78;;;;;;;4.18;82.51;100353.88;5023206;28;20464;-70
2023/03/16 00:07:37;;;;;;;12.18;5.78;;;;;;;4.23;80.64;100362.44;5021381;28;20033;-71
2023/03/16 00:10:02;;;;;;;11.55;6.18;;;;;;;4.22;79.87;100355.41;5023751;28;20464;-71
2023/03/16 00:12:28;;;;;;;10.77;5.70;;;;;;;4.16;80.06;100345.19;5013964;28;20472;-70
2023/03/16 00:14:54;;;;;;;14.02;6.10;;;;;;;4.09;81.98;100338.50;5028936;28;20025;-70
2023/03/16 00:17:19;;;;;;;11.50;6.88;;;;;;;4.14;82.53;100352.38;5024058;28;20033;-71
2023/03/16 00:19:45;;;;;;;13.68;7.05;;;;;;;4.12;82.31;100348.94;5026383;28;20127;-70
2023/03/16 00:22:13;;;;;;;10.23;6.88;;;;;;;4.09;81.78;100347.34;5028787;28;20033;-70
2023/03/16 00:24:43;;;;;;;12.38;7.20;;;;;;;4.12;81.89;100355.13;5023868;28;20018;-71
2023/03/16 00:27:13;;;;;;;13.35;6.88;;;;;;;4.11;80.76;100352.56;5025717;28;20356;-70
2023/03/16 00:29:54;;;;;;;13.50;7.00;;;;;;;4.05;80.52;100343.19;5025576;28;20029;-71
2023/03/16 00:32:24;;;;;;;12.80;6.30;;;;;;;4.07;81.15;100357.19;5023428;28;20057;-70
2023/03/16 00:34:50;;;;;;;11.35;6.45;;;;;;;4.07;81.05;100351.03;5005470;28;20049;-70
2023/03/16 00:37:18;;;;;;;12.52;6.80;;;;;;;4.12;79.60;100352.47;5028803;28;20594;-70
2023/03/16 00:39:44;;;;;;;15.23;7.70;;;;;;;4.22;77.99;100353.59;5028695;28;20104;-70
2023/03/16 00:42:13;;;;;;;10.75;6.00;;;;;;;4.17;76.92;100353.06;5022129;28;20025;-71
2023/03/16 00:44:40;;;;;;;13.27;6.40;;;;;;;4.16;78.12;100367.25;5011268;28;20021;-63
2023/03/16 00:47:07;;;;;;;12.40;6.30;;;;;;;4.24;76.53;100353.50;5010024;28;20040;-63
2023/03/16 00:49:34;;;;;;;14.13;5.65;;;;;;;4.24;75.96;100359.69;5025528;28;20463;-63
2023/03/16 00:52:05;;;;;;;13.38;5.53;;;;;;;4.18;76.80;100362.72;5004430;28;20100;-63
2023/03/16 00:54:33;;;;;;;14.93;6.20;;;;;;;4.28;75.65;100361.19;5026829;28;20045;-63
2023/03/16 00:57:00;;;;;;;14.50;6.80;;;;;;;4.24;75.37;100366.78;5010397;28;20040;-63
2023/03/16 00:59:25;;;;;;;10.77;5.85;;;;;;;4.26;75.76;100370.22;5016219;28;20092;-63
2023/03/16 01:01:52;;;;;;;14.07;6.93;;;;;;;4.42;75.38;100376.28;5013724;28;20735;-63
2023/03/16 01:04:18;;;;;;;13.82;6.32;;;;;;;4.34;75.91;100379.41;5023241;28;20037;-63
2023/03/16 01:06:44;;;;;;;11.90;6.97;;;;;;;4.22;75.73;100366.88;5004421;28;20107;-62
2023/03/16 01:09:10;;;;;;;10.85;6.80;;;;;;;4.15;76.23;100375.31;5026093;28;20431;-63
2023/03/16 01:11:36;;;;;;;10.38;6.35;;;;;;;4.05;75.75;100368.84;5027067;28;20087;-62
2023/03/16 01:14:02;;;;;;;11.15;5.93;;;;;;;4.07;73.07;100377.56;5009031;28;20036;-63
2023/03/16 01:16:28;;;;;;;13.15;5.63;;;;;;;4.06;72.10;100383.81;5015226;28;20026;-63
2023/03/16 01:18:53;;;;;;;13.75;5.88;;;;;;;3.98;71.22;100379.00;5005810;28;20038;-63
2023/03/16 01:21:20;;;;;;;9.70;5.22;;;;;;;3.90;72.55;100378.56;5014776;28;20021;-62
2023/03/16 01:23:46;;;;;;;13.27;5.35;;;;;;;3.83;73.20;100379.03;5016688;28;20033;-63
2023/03/16 01:26:12;;;;;;;9.88;5.25;;;;;;;3.79;73.48;100386.34;5026896;28;20056;-63
2023/03/16 01:28:37;;;;;;;9.23;4.85;;;;;;;3.82;72.97;100391.47;5026980;28;20048;-63
2023/03/16 01:31:09;;;;;;;12.55;4.80;;;;;;;3.75;73.26;100387.47;5026616;28;20029;-63
2023/03/16 01:33:35;;;;;;;9.68;5.03;;;;;;;3.72;74.61;100386.78;5026742;28;20059;-63
2023/03/16 01:36:07;;;;;;;8.13;4.93;;;;;;;3.68;75.37;100385.25;5008739;28;20028;-62
2023/03/16 01:38:32;;;;;;;9.88;5.38;;;;;;;3.66;74.57;100382.69;5024789;28;20091;-62
2023/03/16 01:40:58;;;;;;;10.63;5.45;;;;;;;3.64;74.04;100381.91;5026480;28;20026;-63
2023/03/16 01:43:26;;;;;;;10.43;5.10;;;;;;;3.66;72.00;100381.81;5027037;28;20028;-63
2023/03/16 01:46:16;;;;;;;13.02;5.60;;;;;;;3.53;72.02;100362.28;5026227;28;20025;-62
2023/03/16 01:48:48;;;;;;;11.85;5.82;;;;;;;3.61;72.12;100383.91;5026292;28;20088;-63
2023/03/16 01:51:42;;;;;;;11.75;5.72;;;;;;;3.57;72.04;100375.28;5026374;28;20527;-62
2023/03/16 01:54:17;;;;;;;10.57;5.22;;;;;;;3.63;71.58;100384.66;4999310;28;20037;-62
2023/03/16 01:56:56;;;;;;;10.75;5.65;;;;;;;3.63;70.92;100393.47;5025965;28;20112;-70
2023/03/16 01:59:28;;;;;;;12.02;6.18;;;;;;;3.60;70.62;100382.19;5002282;28;20057;-70
2023/03/16 02:01:54;;;;;;;9.32;5.43;;;;;;;3.46;70.86;100371.53;5023771;28;20065;-70
2023/03/16 02:04:35;;;;;;;8.93;5.20;;;;;;;3.52;71.01;100390.56;5026783;28;20033;-70
2023/03/16 02:07:03;;;;;;;9.85;5.85;;;;;;;3.46;71.21;100385.66;5023686;28;20026;-69
2023/03/16 02:09:30;;;;;;;10.88;5.20;;;;;;;3.44;71.39;100399.91;5026548;28;20060;-70
2023/03/16 02:11:57;;;;;;;8.32;5.53;;;;;;;3.36;71.20;100395.09;5011983;28;20039;-69
2023/03/16 02:14:23;;;;;;;9.82;5.10;;;;;;;3.35;71.08;100401.31;5018876;28;20026;-69
2023/03/16 02:16:49;;;;;;;10.32;5.50;;;;;;;3.33;71.16;100405.00;5000026;28;20057;-70
2023/03/16 02:19:52;;;;;;;10.95;5.90;;;;;;;3.26;71.17;100409.75;5019490;28;20061;-69
2023/03/16 02:22:18;;;;;;;16.65;6.40;;;;;;;3.20;71.49;100411.94;5024507;28;20021;-69
2023/03/16 02:24:44;;;;;;;16.73;7.65;;;;;;;3.13;71.57;100407.91;5026126;28;20383;-69
2023/03/16 02:27:12;;;;;;;12.20;7.15;;;;;;;3.08;71.84;100412.59;5025680;28;20052;-69
2023/03/16 02:29:51;;;;;;;17.15;7.07;;;;;;;3.03;72.14;100412.03;5020818;28;20087;-69
2023/03/16 02:32:17;;;;;;;12.68;6.72;;;;;;;2.94;72.15;100404.56;5024626;28;20029;-69
2023/03/16 02:34:43;;;;;;;17.15;6.90;;;;;;;2.93;72.24;100413.47;5006323;28;20046;-69
2023/03/16 02:37:10;;;;;;;14.50;6.32;;;;;;;2.88;72.54;100404.91;5007146;28;20037;-69
2023/03/16 02:39:36;;;;;;;12.73;6.43;;;;;;;2.84;72.87;100420.09;4989032;28;20060;-69
2023/03/16 02:42:02;;;;;;;13.70;7.32;;;;;;;2.78;72.59;100431.06;5006951;28;20434;-69
2023/03/16 02:44:32;;;;;;;12.70;6.65;;;;;;;2.76;73.51;100424.09;5004727;28;20029;-69
2023/03/16 02:47:03;;;;;;;12.73;7.10;;;;;;;2.73;74.04;100429.56;5006522;28;20064;-68
2023/03/16 02:49:32;;;;;;;13.15;7.03;;;;;;;2.60;74.73;100426.75;5005569;28;20507;-69
2023/03/16 02:51:57;;;;;;;16.63;7.10;;;;;;;2.63;75.38;100434.53;5006677;28;20037;-69
2023/03/16 02:54:23;;;;;;;12.52;7.43;;;;;;;2.62;75.00;100446.06;4989105;28;20478;-69
2023/03/16 02:56:49;;;;;;;13.80;6.57;;;;;;;2.61;74.11;100452.25;5006390;28;20496;-69
2023/03/16 02:59:15;;;;;;;12.45;6.30;;;;;;;2.58;73.91;100451.59;5006318;28;20530;-62
2023/03/16 03:01:40;;;;;;;14.40;5.97;;;;;;;2.50;74.15;100433.47;5006209;28;20061;-61
2023/03/16 03:04:06;;;;;;;15.20;6.38;;;;;;;2.54;73.97;100442.09;5006505;28;20036;-62
2023/03/16 03:06:33;;;;;;;12.57;5.97;;;;;;;2.60;73.64;100452.34;5006782;28;20111;-62
2023/03/16 03:08:58;;;;;;;12.20;6.68;;;;;;;2.59;73.61;100458.59;5006543;28;20022;-62
2023/03/16 03:11:24;;;;;;;11.90;5.30;;;;;;;2.53;73.39;100451.84;5007109;28;20048;-62
2023/03/16 03:13:50;;;;;;;16.35;5.47;;;;;;;2.46;73.32;100439.00;5006793;28;20093;-62
2023/03/16 03:16:16;;;;;;;16.02;6.65;;;;;;;2.58;72.44;100462.19;5006755;28;20038;-62
2023/03/16 03:18:41;;;;;;;14.55;6.03;;;;;;;2.54;72.72;100465.94;5005154;28;20034;-62
2023/03/16 03:21:07;;;;;;;16.20;5.70;;;;;;;2.52;73.59;100463.38;5006582;28;20026;-62
2023/03/16 03:23:34;;;;;;;11.93;5.68;;;;;;;2.42;73.39;100465.63;5004191;28;20034;-63
2023/03/16 03:26:01;;;;;;;14.15;5.65;;;;;;;2.49;73.34;100476.75;5006376;28;20504;-62
2023/03/16 03:28:27;;;;;;;12.55;5.35;;;;;;;2.48;73.29;100482.13;5006443;28;20369;-62
2023/03/16 03:30:53;;;;;;;14.15;5.50;;;;;;;2.41;73.50;100483.38;5006880;28;20037;-62
2023/03/16 03:33:18;;;;;;;10.32;5.15;;;;;;;2.42;73.58;100477.16;5006393;28;20160;-62
2023/03/16 03:35:44;;;;;;;12.88;5.75;;;;;;;2.38;73.91;100487.91;5006443;28;20014;-62
2023/03/16 03:38:10;;;;;;;10.23;4.25;;;;;;;2.38;73.80;100496.78;5007745;28;20131;-63
2023/03/16 03:40:36;;;;;;;9.60;5.05;;;;;;;2.39;73.77;100502.00;4992182;28;20048;-63
2023/03/16 03:43:02;;;;;;;13.82;4.32;;;;;;;2.38;73.54;100498.47;5009676;28;20472;-62
2023/03/16 03:45:28;;;;;;;11.73;4.90;;;;;;;2.38;73.64;100500.25;5009912;28;20053;-62
2023/03/16 03:47:54;;;;;;;9.00;4.95;;;;;;;2.38;73.53;100504.72;5010083;28;20081;-62
2023/03/16 03:50:20;;;;;;;14.23;5.22;;;;;;;2.41;73.51;100517.78;5009812;28;20464;-62
2023/03/16 03:52:46;;;;;;;12.93;5.78;;;;;;;2.45;72.27;100506.94;5009699;28;20092;-63
2023/03/16 03:55:11;;;;;;;9.57;4.53;;;;;;;2.42;72.07;100507.97;5009677;28;20054;-63
2023/03/16 03:57:37;;;;;;;8.95;4.97;;;;;;;2.35;72.42;100505.72;5009672;28;20047;-63
2023/03/16 04:00:12;;;;;;;8.73;4.90;;;;;;;2.43;72.30;100517.59;5009635;28;20029;-62
2023/03/16 04:02:38;;;;;;;15.13;5.65;;;;;;;2.45;71.74;100530.75;5008477;28;20028;-69
2023/03/16 04:05:05;;;;;;;10.57;5.15;;;;;;;2.52;71.56;100539.25;5009115;28;20508;-69
2023/03/16 04:07:30;;;;;;;11.95;5.40;;;;;;;2.45;71.34;100530.75;5009677;28;20030;-69
2023/03/16 04:09:56;;;;;;;11.27;5.32;;;;;;;2.49;71.39;100539.41;5008965;28;20033;-69
2023/03/16 04:12:21;;;;;;;11.43;4.35;;;;;;;2.52;71.39;100545.41;5008309;28;20044;-70
2023/03/16 04:14:47;;;;;;;9.65;4.45;;;;;;;2.41;71.40;100528.38;5008841;28;20087;-63
2023/03/16 04:17:12;;;;;;;12.48;5.28;;;;;;;2.46;71.66;100542.22;5009137;28;20033;-63
2023/03/16 04:19:38;;;;;;;12.80;4.88;;;;;;;2.51;71.42;100548.97;5009312;28;20046;-62
2023/03/16 04:22:04;;;;;;;9.23;5.22;;;;;;;2.47;71.50;100551.88;5008794;28;20026;-62
2023/03/16 04:24:33;;;;;;;10.43;4.88;;;;;;;2.47;71.54;100554.50;5009157;28;20115;-62
2023/03/16 04:26:59;;;;;;;13.23;4.93;;;;;;;2.42;71.05;100547.66;5009067;28;20439;-62
2023/03/16 04:29:25;;;;;;;7.53;4.25;;;;;;;2.50;70.98;100572.88;5008133;28;20472;-62
2023/03/16 04:31:52;;;;;;;9.45;4.57;;;;;;;2.49;71.31;100574.69;5009126;28;20042;-62
2023/03/16 04:34:19;;;;;;;9.98;4.80;;;;;;;2.55;70.34;100578.81;5008922;28;20045;-63
2023/03/16 04:36:44;;;;;;;9.57;4.60;;;;;;;2.43;70.49;100578.47;5008832;28;20472;-62
2023/03/16 04:39:09;;;;;;;13.10;4.70;;;;;;;2.43;70.82;100586.41;5008886;28;20036;-63
2023/03/16 04:41:35;;;;;;;11.68;5.40;;;;;;;2.41;71.28;100587.44;5008736;28;20126;-62
2023/03/16 04:44:01;;;;;;;15.13;6.90;;;;;;;2.38;71.26;100574.34;5008702;28;20049;-62
2023/03/16 04:46:28;;;;;;;11.18;6.55;;;;;;;2.37;71.65;100585.88;5008173;28;20384;-62
2023/03/16 04:48:57;;;;;;;13.20;7.05;;;;;;;2.41;71.60;100589.25;5008581;28;20465;-63
2023/03/16 04:51:23;;;;;;;22.48;7.05;;;;;;;2.33;71.51;100585.16;5006801;28;20463;-62
2023/03/16 04:53:49;;;;;;;14.43;6.70;;;;;;;2.38;71.94;100592.06;5008266;28;20029;-63
2023/03/16 04:56:17;;;;;;;12.73;6.35;;;;;;;2.32;70.77;100575.53;5008798;28;20028;-62
2023/03/16 04:58:44;;;;;;;12.48;6.47;;;;;;;2.29;70.91;100583.63;5008147;28;20469;-62
2023/03/16 05:01:09;;;;;;;13.52;5.32;;;;;;;2.31;71.43;100594.13;5008400;28;20129;-62
2023/03/16 05:03:34;;;;;;;12.55;5.57;;;;;;;2.28;71.38;100599.56;5008464;28;20117;-63
2023/03/16 05:06:00;;;;;;;11.73;5.43;;;;;;;2.26;70.54;100593.53;5008076;28;20014;-62
2023/03/16 05:08:25;;;;;;;10.85;5.05;;;;;;;2.14;71.31;100578.25;5008679;28;20029;-63
2023/03/16 05:10:56;;;;;;;10.00;5.30;;;;;;;2.23;70.74;100607.72;5007940;28;20021;-63
2023/03/16 05:13:21;;;;;;;13.48;5.20;;;;;;;2.04;71.06;100577.81;5008518;28;20014;-62
2023/03/16 05:15:46;;;;;;;12.10;5.43;;;;;;;2.13;70.80;100593.25;5007981;28;20037;-63
2023/03/16 05:18:12;;;;;;;10.50;5.03;;;;;;;2.16;70.60;100608.13;5008163;28;20614;-63
2023/03/16 05:20:37;;;;;;;10.25;5.85;;;;;;;1.53;70.96;100503.69;5005682;28;20040;-63
2023/03/16 05:23:03;;;;;;;9.77;4.55;;;;;;;2.12;71.73;100596.84;5007416;28;20164;-63
2023/03/16 05:25:28;;;;;;;13.80;5.68;;;;;;;2.16;71.70;100610.78;5007496;28;20025;-63
2023/03/16 05:27:54;;;;;;;14.63;5.72;;;;;;;2.13;71.47;100609.13;5008581;28;20049;-63
2023/03/16 05:30:19;;;;;;;15.65;6.65;;;;;;;2.16;71.88;100624.84;5015147;28;20061;-63
2023/03/16 05:32:45;;;;;;;13.57;6.18;;;;;;;2.18;71.52;100619.47;5016880;28;20042;-63
2023/03/16 05:35:12;;;;;;;20.13;6.40;;;;;;;2.23;71.42;100634.19;5018196;28;20044;-70
2023/03/16 05:37:39;;;;;;;14.52;6.85;;;;;;;2.25;71.86;100636.75;5007209;28;20025;-71
2023/03/16 05:40:15;;;;;;;14.32;6.38;;;;;;;2.32;71.46;100624.94;4989769;28;20030;-71
2023/03/16 05:42:48;;;;;;;14.45;7.00;;;;;;;2.20;72.01;100613.19;5006021;28;20034;-70
2023/03/16 05:45:15;;;;;;;15.55;6.72;;;;;;;2.36;71.82;100626.53;5007744;28;20033;-71
2023/03/16 05:47:42;;;;;;;19.52;7.25;;;;;;;2.46;70.82;100626.91;5007791;28;20032;-71
2023/03/16 05:50:10;;;;;;;17.75;7.47;;;;;;;2.57;70.62;100635.19;5007234;28;20095;-69
2023/03/16 05:52:37;;;;;;;16.17;6.80;;;;;;;2.57;71.05;100635.19;5007736;28;20372;-72
2023/03/16 05:55:04;;;;;;;18.50;8.20;;;;;;;2.70;69.80;100638.94;5007037;28;20018;-70
2023/03/16 05:57:30;;;;;;;13.73;6.47;;;;;;;2.77;69.96;100642.97;5007452;28;20384;-70
2023/03/16 05:59:55;;;;;;;14.50;7.20;;;;;;;2.64;70.41;100633.94;5007217;28;20163;-70
2023/03/16 06:02:21;;;;;;;16.80;6.47;;;;;;;2.82;69.85;100651.53;5007245;28;20498;-70
2023/03/16 06:04:47;;;;;;;19.48;7.28;;;;;;;2.92;69.07;100647.47;5006916;28;20030;-72
2023/03/16 06:07:12;;;;;;;12.50;6.00;;;;;;;2.89;69.77;100644.97;5006893;28;20041;-71
2023/03/16 06:09:37;;;;;;;16.27;5.93;;;;;;;2.91;69.94;100643.13;5007127;28;20586;-72
2023/03/16 06:12:03;;;;;;;11.05;5.75;;;;;;;3.00;68.81;100645.31;5007414;28;20042;-70
2023/03/16 06:14:29;;;;;;;12.35;5.72;;;;;;;3.10;69.82;100658.00;5005300;28;20048;-69
2023/03/16 06:16:55;;;;;;;11.30;5.63;;;;;;;3.13;69.76;100667.56;5007406;28;20053;-70
2023/03/16 06:19:20;;;;;;;11.38;5.85;;;;;;;3.19;69.67;100677.88;5006975;28;20033;-69
2023/03/16 06:21:46;;;;;;;14.27;5.93;;;;;;;3.22;70.19;100661.81;5001451;28;20049;-69
2023/03/16 06:24:11;;;;;;;13.20;6.28;;;;;;;3.30;69.14;100664.91;5005398;28;20037;-70
2023/03/16 06:26:37;;;;;;;11.77;5.75;;;;;;;3.41;69.23;100675.78;5005833;28;20032;-70
2023/03/16 06:29:02;;;;;;;11.65;5.55;;;;;;;3.57;68.84;100674.03;5006470;28;20069;-69
2023/03/16 06:31:28;;;;;;;16.92;5.35;;;;;;;3.64;68.79;100675.44;5006637;28;20029;-71
2023/03/16 06:33:53;;;;;;;12.52;5.43;;;;;;;3.79;68.65;100688.72;5012995;28;20053;-70
2023/03/16 06:36:19;;;;;;;10.60;5.32;;;;;;;3.89;68.61;100689.06;5026240;28;20036;-70
2023/03/16 06:38:44;;;;;;;9.38;4.93;;;;;;;4.03;67.38;100683.88;5010364;28;20100;-70
2023/03/16 06:41:10;;;;;;;8.00;4.88;;;;;;;4.19;67.30;100700.63;5024643;28;20033;-69
2023/03/16 06:43:35;;;;;;;13.80;5.60;;;;;;;4.37;65.89;100686.34;5008105;28;20033;-70
2023/03/16 06:46:02;;;;;;;13.98;5.38;;;;;;;4.62;65.01;100700.78;5021075;28;20033;-70
2023/03/16 06:48:27;;;;;;;13.48;4.93;;;;;;;4.75;64.74;100706.25;5023457;28;20494;-70
2023/03/16 06:50:53;;;;;;;12.15;5.07;;;;;;;4.84;64.22;100711.03;5023007;28;20033;-70
2023/03/16 06:53:18;;;;;;;11.95;5.55;;;;;;;5.05;63.83;100715.09;5018948;28;20541;-70
2023/03/16 06:55:43;;;;;;;15.07;5.00;;;;;;;5.26;62.34;100708.50;5004209;28;20106;-70
2023/03/16 06:58:10;;;;;;;13.70;5.35;;;;;;;5.28;63.12;100727.88;5017620;28;20080;-70
2023/03/16 07:00:36;;;;;;;11.32;5.13;;;;;;;5.38;63.52;100726.38;5005653;28;20044;-70
2023/03/16 07:03:02;;;;;;;10.60;5.20;;;;;;;5.66;61.77;100722.88;5020518;28;20113;-69
2023/03/16 07:05:28;;;;;;;13.55;5.70;;;;;;;5.75;60.87;100712.56;5021175;28;20108;-70
2023/03/16 07:07:53;;;;;;;12.60;5.68;;;;;;;5.87;60.61;100709.16;5025920;28;20057;-70
2023/03/16 07:10:19;;;;;;;8.02;4.93;;;;;;;6.11;61.11;100742.25;5020952;28;20095;-63
2023/03/16 07:12:45;;;;;;;11.75;5.78;;;;;;;6.30;59.94;100734.81;5011998;28;20081;-63
2023/03/16 07:15:11;;;;;;;12.82;5.75;;;;;;;6.51;59.73;100730.75;5029540;28;20538;-63
2023/03/16 07:17:37;;;;;;;10.82;5.22;;;;;;;6.68;58.13;100725.16;5020598;28;20119;-63
2023/03/16 07:20:04;;;;;;;11.00;5.03;;;;;;;6.95;58.33;100742.03;5014849;28;20083;-63
2023/03/16 07:22:31;;;;;;;15.20;5.10;;;;;;;7.14;58.23;100747.00;5029705;28;20029;-63
2023/03/16 07:24:57;;;;;;;10.75;5.15;;;;;;;7.43;56.83;100753.03;5029325;28;20056;-63
2023/03/16 07:27:23;;;;;;;14.18;5.40;;;;;;;7.60;56.42;100752.72;5022361;28;20695;-63
2023/03/16 07:29:50;;;;;;;10.20;4.15;;;;;;;7.83;55.78;100752.84;5016572;28;20112;-64
2023/03/16 07:32:16;;;;;;;9.55;4.80;;;;;;;7.99;54.71;100740.13;5022702;28;20044;-63
2023/03/16 07:34:42;;;;;;;11.32;4.97;;;;;;;8.26;54.43;100750.72;5026264;28;20045;-64
2023/03/16 07:37:08;;;;;;;11.98;5.03;;;;;;;8.59;52.76;100741.13;5023980;28;20044;-63
2023/03/16 07:39:37;;;;;;;15.05;5.47;;;;;;;8.81;52.74;100745.75;5018999;28;20538;-63
2023/03/16 07:42:03;;;;;;;14.43;5.32;;;;;;;9.00;52.56;100746.91;5015512;28;20032;-63
2023/03/16 07:44:29;;;;;;;16.90;6.53;;;;;;;9.36;52.29;100747.81;5008481;28;20037;-63
2023/03/16 07:46:54;;;;;;;13.98;5.40;;;;;;;9.68;50.88;100739.03;5027511;28;20056;-63
2023/03/16 07:49:20;;;;;;;26.50;6.18;;;;;;;9.97;50.99;100755.50;5023411;28;20026;-64
2023/03/16 07:51:45;;;;;;;15.45;5.53;;;;;;;10.48;49.13;100759.44;4998576;28;20176;-64
2023/03/16 07:54:12;;;;;;;8.98;4.38;;;;;;;11.31;45.16;100753.34;5010307;28;20060;-63
2023/03/16 07:56:38;;;;;;;9.07;5.18;;;;;;;11.89;44.30;100750.13;5028981;28;20486;-63
2023/03/16 07:59:04;;;;;;;9.80;5.05;;;;;;;11.95;43.85;100744.22;5028523;28;20076;-64
2023/03/16 08:01:29;;;;;;;10.88;5.47;;;;;;;12.53;43.31;100742.63;5028739;28;20025;-64
2023/03/16 08:03:54;;;;;;;7.55;4.45;;;;;;;13.63;41.81;100744.06;5027975;28;20167;-63
2023/03/16 08:06:20;;;;;;;9.63;4.82;;;;;;;14.48;40.63;100748.38;5028179;28;20029;-64
2023/03/16 08:08:46;;;;;;;9.57;4.82;;;;;;;16.57;35.98;100739.47;5028019;28;20514;-63
2023/03/16 08:11:12;;;;;;;8.10;4.38;;;;;;;16.25;35.30;100739.28;5028090;28;20031;-64
2023/03/16 08:13:38;;;;;;;10.20;4.93;;;;;;;16.69;34.76;100735.44;5028189;28;20039;-64
2023/03/16 08:16:04;;;;;;;9.70;5.05;;;;;;;17.02;34.62;100743.50;5009705;28;20029;-63
2023/03/16 08:18:30;;;;;;;12.63;5.10;;;;;;;17.72;33.59;100758.38;5028444;28;20028;-64
2023/03/16 08:20:57;;;;;;;11.43;4.68;;;;;;;18.26;31.87;100754.09;5027526;28;20090;-64
2023/03/16 08:23:23;;;;;;;15.43;4.82;;;;;;;18.67;30.89;100759.25;5022013;28;20134;-64
2023/03/16 08:25:56;;;;;;;11.32;4.38;;;;;;;19.21;29.59;100766.44;5028084;28;20029;-64
2023/03/16 08:28:24;;;;;;;8.93;4.53;;;;;;;19.35;29.23;100760.25;5019962;28;20034;-64
2023/03/16 08:30:52;;;;;;;6.07;3.63;;;;;;;19.91;28.37;100754.41;5027800;28;20059;-64
2023/03/16 08:33:19;;;;;;;8.90;4.40;;;;;;;20.14;28.03;100757.94;5024924;28;20037;-64
2023/03/16 08:35:46;;;;;;;8.95;4.10;;;;;;;20.50;27.84;100768.13;5023429;28;20034;-64
2023/03/16 08:38:14;;;;;;;5.07;3.30;;;;;;;20.85;26.58;100754.56;5017190;28;20053;-71
2023/03/16 08:40:47;;;;;;;10.57;4.38;;;;;;;21.51;26.86;100767.97;5020139;28;20038;-72
2023/03/16 08:43:14;;;;;;;7.72;4.07;;;;;;;21.52;26.26;100760.63;5021560;28;20090;-72
2023/03/16 08:45:41;;;;;;;5.80;3.42;;;;;;;22.17;24.77;100766.72;5025506;28;20022;-72
2023/03/16 08:48:06;;;;;;;9.77;4.43;;;;;;;22.44;24.73;100762.28;5026777;28;20033;-72
2023/03/16 08:50:32;;;;;;;7.72;3.85;;;;;;;22.72;24.55;100758.50;5027484;28;20034;-72
2023/03/16 08:52:58;;;;;;;9.77;4.07;;;;;;;22.76;24.84;100770.72;5028252;28;20041;-72
2023/03/16 08:55:23;;;;;;;8.10;4.18;;;;;;;22.75;24.51;100773.66;5028404;28;20032;-71
2023/03/16 08:57:49;;;;;;;6.75;3.55;;;;;;;22.15;25.09;100771.53;5017963;28;20510;-72
2023/03/16 09:00:16;;;;;;;7.45;4.20;;;;;;;22.40;24.98;100775.50;5010920;28;20458;-72
2023/03/16 09:02:42;;;;;;;7.30;3.78;;;;;;;23.14;23.99;100766.47;5023956;28;20105;-72
2023/03/16 09:05:10;;;;;;;13.38;4.10;;;;;;;22.83;23.82;100768.84;5012574;28;20403;-72
2023/03/16 09:07:38;;;;;;;10.75;4.13;;;;;;;22.73;24.25;100760.19;5019867;28;20052;-72
2023/03/16 09:10:05;;;;;;;8.20;3.60;;;;;;;22.92;23.92;100766.81;5024814;28;20029;-72
2023/03/16 09:12:34;;;;;;;10.50;3.88;;;;;;;22.77;23.53;100772.44;5023374;28;20080;-72
2023/03/16 09:14:59;;;;;;;7.97;3.38;;;;;;;23.03;23.60;100769.81;5025538;28;20033;-72
2023/03/16 09:17:25;;;;;;;8.50;3.55;;;;;;;23.42;23.40;100761.78;5021962;28;20083;-72
2023/03/16 09:19:51;;;;;;;6.35;3.28;;;;;;;23.37;22.94;100772.47;5019553;28;20380;-72
2023/03/16 09:22:18;;;;;;;7.10;3.20;;;;;;;23.68;22.54;100769.19;5023613;28;20048;-72
2023/03/16 09:24:44;;;;;;;7.10;3.35;;;;;;;23.90;22.39;100766.03;5026872;28;20033;-72
2023/03/16 09:27:09;;;;;;;8.07;3.50;;;;;;;24.31;22.11;100769.44;5025163;28;20093;-72
2023/03/16 09:29:35;;;;;;;25.80;3.72;;;;;;;24.68;21.45;100775.31;5013235;28;20121;-72
2023/03/16 09:32:02;;;;;;;5.40;3.17;;;;;;;24.57;22.06;100779.56;5014746;28;20041;-72
2023/03/16 09:34:27;;;;;;;7.10;3.40;;;;;;;24.11;21.57;100786.94;5008657;28;20285;-71
2023/03/16 09:36:54;;;;;;;8.27;3.15;;;;;;;23.83;21.75;100786.28;5020069;28;20032;-72
2023/03/16 09:39:19;;;;;;;5.93;3.00;;;;;;;23.61;21.01;100776.56;5025170;28;20130;-72
2023/03/16 09:42:12;;;;;;;5.70;3.28;;;;;;;21.72;22.79;100794.44;5021639;28;20116;-72
2023/03/16 09:45:09;;;;;;;9.13;3.80;;;;;;;19.34;25.80;100774.03;5024925;28;20487;-72
2023/03/16 09:47:37;;;;;;;9.20;3.25;;;;;;;19.03;26.62;100789.50;5021799;28;20048;-71
2023/03/16 09:50:07;;;;;;;6.45;3.53;;;;;;;19.43;26.60;100797.47;4999002;28;20480;-72
2023/03/16 09:52:51;;;;;;;7.63;3.33;;;;;;;18.49;26.89;100809.41;5021434;28;20025;-71
2023/03/16 09:55:32;;;;;;;5.05;2.65;;;;;;;18.23;26.96;100796.00;5023085;28;20419;-71
2023/03/16 09:57:59;;;;;;;8.65;3.47;;;;;;;18.05;26.93;100800.78;5018145;28;20052;-72
2023/03/16 10:00:30;;;;;;;10.43;3.60;;;;;;;17.17;27.97;100806.94;5012664;28;20396;-71
2023/03/16 10:03:14;;;;;;;9.90;3.40;;;;;;;16.40;28.92;100808.03;5014346;28;20113;-71
2023/03/16 10:05:39;;;;;;;9.57;3.63;;;;;;;17.05;29.42;100799.25;5026428;28;20034;-72
2023/03/16 10:08:08;;;;;;;6.72;3.42;;;;;;;18.82;26.72;100805.56;5026237;28;20064;-72
2023/03/16 10:10:57;;;;;;;11.77;3.70;;;;;;;20.32;25.39;100795.75;5026223;28;20033;-72
2023/03/16 10:13:48;;;;;;;7.88;3.50;;;;;;;19.93;25.01;100795.06;5024605;28;20021;-71
2023/03/16 10:16:34;;;;;;;5.40;2.80;;;;;;;19.06;26.35;100811.72;5023026;28;20043;-72
2023/03/16 10:19:09;;;;;;;5.90;3.17;;;;;;;17.81;27.16;100807.06;5024689;28;20095;-72
2023/03/16 10:21:39;;;;;;;10.25;4.13;;;;;;;17.19;28.49;100809.47;5024043;28;20075;-72
2023/03/16 10:24:35;;;;;;;8.02;3.65;;;;;;;17.32;27.92;100793.59;5011760;28;20018;-71
2023/03/16 10:27:03;;;;;;;8.75;3.42;;;;;;;16.56;29.31;100816.31;5004839;28;20052;-71
2023/03/16 10:29:33;;;;;;;8.32;3.47;;;;;;;15.60;30.12;100814.53;5008165;28;20026;-71
2023/03/16 10:32:10;;;;;;;6.13;3.03;;;;;;;14.98;30.68;100811.81;5020730;28;20510;-71
2023/03/16 10:34:36;;;;;;;9.43;3.22;;;;;;;14.41;31.58;100813.91;5014956;28;20049;-72
2023/03/16 10:37:03;;;;;;;10.90;3.55;;;;;;;13.94;32.68;100817.53;5024354;28;20754;-71
2023/03/16 10:39:35;;;;;;;6.75;3.22;;;;;;;13.54;32.71;100815.84;5013574;28;20037;-71
2023/03/16 10:42:01;;;;;;;8.68;3.58;;;;;;;13.23;34.06;100821.50;5015824;28;20072;-71
2023/03/16 10:44:28;;;;;;;8.60;3.47;;;;;;;13.56;32.83;100810.31;5026023;28;20056;-71
2023/03/16 10:47:03;;;;;;;7.65;3.42;;;;;;;13.41;34.09;100814.41;5016401;28;20049;-71
2023/03/16 10:49:50;;;;;;;8.48;4.07;;;;;;;13.05;35.04;100815.06;5028722;28;20037;-71
2023/03/16 10:52:22;;;;;;;7.45;3.00;;;;;;;12.77;33.90;100813.13;5026049;28;20056;-71
2023/03/16 10:54:57;;;;;;;8.25;3.25;;;;;;;12.74;34.92;100821.47;5029897;28;20025;-71
2023/03/16 10:57:32;;;;;;;6.53;2.75;;;;;;;12.62;34.00;100788.44;5027410;28;20025;-72
2023/03/16 11:00:10;;;;;;;6.13;3.08;;;;;;;12.83;34.14;100816.09;5028833;28;20033;-71
2023/03/16 11:02:36;;;;;;;8.10;3.10;;;;;;;12.88;34.23;100819.25;4992634;28;20574;-71
2023/03/16 11:05:29;;;;;;;8.43;2.85;;;;;;;12.65;35.30;100806.13;5021160;28;20073;-71
2023/03/16 11:08:09;;;;;;;8.90;3.28;;;;;;;12.40;35.13;100817.34;5025585;28;20159;-71
2023/03/16 11:10:43;;;;;;;9.65;3.10;;;;;;;12.11;36.40;100816.34;5027216;28;20028;-71
2023/03/16 11:13:13;;;;;;;6.07;2.92;;;;;;;12.14;35.23;100805.31;5006454;28;20114;-71
2023/03/16 11:16:04;;;;;;;8.65;3.53;;;;;;;11.97;35.81;100798.72;5024528;28;20025;-71
2023/03/16 11:18:42;;;;;;;6.18;3.05;;;;;;;11.96;35.23;100806.91;5026854;28;20057;-71
2023/03/16 11:21:18;;;;;;;4.15;2.42;;;;;;;11.90;34.82;100810.13;5018924;28;20032;-71
2023/03/16 11:23:48;;;;;;;5.78;2.63;;;;;;;11.83;34.70;100804.41;5026729;28;20446;-71
2023/03/16 11:26:32;;;;;;;5.70;2.92;;;;;;;11.67;35.13;100793.25;5026562;28;20427;-71
2023/03/16 11:29:33;;;;;;;7.65;3.05;;;;;;;11.77;34.60;100809.47;5029363;28;20061;-71
2023/03/16 11:32:13;;;;;;;7.40;3.20;;;;;;;11.61;34.20;100809.88;4991980;28;20467;-72